sensor_id;sensor_type;location;lat;lon;timestamp;pressure;altitude;pressure_sealevel;temperature;humidity
22389;BME280;11362;48.102;11.620;2023-11-19T00:01:36;95263.72;;;24.28;34.62
22389;BME280;11362;48.102;11.620;2023-11-19T00:04:01;95258.97;;;24.28;34.52
22389;BME280;11362;48.102;11.620;2023-11-19T00:06:27;95263.72;;;24.28;34.78
22389;BME280;11362;48.102;11.620;2023-11-19T00:08:52;95246.28;;;24.27;34.74
22389;BME280;11362;48.102;11.620;2023-11-19T00:11:17;95249.50;;;24.26;34.73
22389;BME280;11362;48.102;11.620;2023-11-19T00:13:42;95246.28;;;24.27;34.71
22389;BME280;11362;48.102;11.620;2023-11-19T00:16:08;95242.72;;;24.27;34.58
22389;BME280;11362;48.102;11.620;2023-11-19T00:18:33;95239.16;;;24.26;34.70
22389;BME280;11362;48.102;11.620;2023-11-19T00:20:59;95225.28;;;24.26;34.68
22389;BME280;11362;48.102;11.620;2023-11-19T00:23:24;95223.28;;;24.27;34.74
22389;BME280;11362;48.102;11.620;2023-11-19T00:25:49;95225.72;;;24.25;34.69
22389;BME280;11362;48.102;11.620;2023-11-19T00:28:14;95221.72;;;24.26;34.67
22389;BME280;11362;48.102;11.620;2023-11-19T00:30:40;95213.75;;;24.28;34.67
22389;BME280;11362;48.102;11.620;2023-11-19T00:33:05;95214.19;;;24.26;34.74
22389;BME280;11362;48.102;11.620;2023-11-19T00:35:30;95209.84;;;24.25;34.75
22389;BME280;11362;48.102;11.620;2023-11-19T00:37:55;95211.84;;;24.25;34.70
22389;BME280;11362;48.102;11.620;2023-11-19T00:40:21;95205.06;;;24.26;34.75
22389;BME280;11362;48.102;11.620;2023-11-19T00:42:46;95205.50;;;24.24;34.69
22389;BME280;11362;48.102;11.620;2023-11-19T00:45:11;95202.72;;;24.24;34.79
22389;BME280;11362;48.102;11.620;2023-11-19T00:47:36;95198.72;;;24.25;34.79
22389;BME280;11362;48.102;11.620;2023-11-19T00:50:02;95192.41;;;24.25;34.76
22389;BME280;11362;48.102;11.620;2023-11-19T00:52:28;95195.19;;;24.25;34.71
22389;BME280;11362;48.102;11.620;2023-11-19T00:54:53;95184.84;;;24.25;34.77
22389;BME280;11362;48.102;11.620;2023-11-19T00:57:18;95188.44;;;24.26;34.64
22389;BME280;11362;48.102;11.620;2023-11-19T00:59:44;95185.66;;;24.26;34.71
22389;BME280;11362;48.102;11.620;2023-11-19T01:02:09;95190.06;;;24.23;34.83
22389;BME280;11362;48.102;11.620;2023-11-19T01:04:35;95190.81;;;24.24;34.75
22389;BME280;11362;48.102;11.620;2023-11-19T01:07:02;95186.06;;;24.24;34.98
22389;BME280;11362;48.102;11.620;2023-11-19T01:09:28;95196.38;;;24.24;34.83
22389;BME280;11362;48.102;11.620;2023-11-19T01:11:53;95193.19;;;24.25;34.84
22389;BME280;11362;48.102;11.620;2023-11-19T01:14:18;95181.31;;;24.25;34.69
22389;BME280;11362;48.102;11.620;2023-11-19T01:16:44;95176.53;;;24.25;34.80
22389;BME280;11362;48.102;11.620;2023-11-19T01:19:09;95169.41;;;24.24;34.79
22389;BME280;11362;48.102;11.620;2023-11-19T01:21:34;95179.31;;;24.25;34.74
22389;BME280;11362;48.102;11.620;2023-11-19T01:24:00;95176.53;;;24.25;34.75
22389;BME280;11362;48.102;11.620;2023-11-19T01:26:25;95186.84;;;24.25;34.86
22389;BME280;11362;48.102;11.620;2023-11-19T01:28:50;95168.19;;;24.25;34.83
22389;BME280;11362;48.102;11.620;2023-11-19T01:31:15;95163.06;;;24.24;34.61
22389;BME280;11362;48.102;11.620;2023-11-19T01:33:41;95168.63;;;24.24;34.84
22389;BME280;11362;48.102;11.620;2023-11-19T01:36:06;95165.06;;;24.23;34.79
22389;BME280;11362;48.102;11.620;2023-11-19T01:38:32;95166.69;;;24.21;34.92
22389;BME280;11362;48.102;11.620;2023-11-19T01:40:57;95155.19;;;24.22;34.69
22389;BME280;11362;48.102;11.620;2023-11-19T01:43:36;95150.84;;;24.21;34.78
22389;BME280;11362;48.102;11.620;2023-11-19T01:46:02;95150.84;;;24.21;34.84
22389;BME280;11362;48.102;11.620;2023-11-19T01:48:28;95143.28;;;24.22;34.84
22389;BME280;11362;48.102;11.620;2023-11-19T01:50:53;95152.41;;;24.22;34.89
22389;BME280;11362;48.102;11.620;2023-11-19T01:53:19;95139.75;;;24.21;34.90
22389;BME280;11362;48.102;11.620;2023-11-19T01:55:46;95134.94;;;24.22;34.98
22389;BME280;11362;48.102;11.620;2023-11-19T01:58:12;95131.41;;;24.21;35.01
22389;BME280;11362;48.102;11.620;2023-11-19T02:00:38;95135.41;;;24.20;34.96
22389;BME280;11362;48.102;11.620;2023-11-19T02:03:05;95134.19;;;24.21;34.96
22389;BME280;11362;48.102;11.620;2023-11-19T02:05:31;95127.84;;;24.21;35.02
22389;BME280;11362;48.102;11.620;2023-11-19T02:07:56;95120.31;;;24.21;34.92
22389;BME280;11362;48.102;11.620;2023-11-19T02:10:22;95114.75;;;24.21;34.84
22389;BME280;11362;48.102;11.620;2023-11-19T02:12:47;95109.97;;;24.22;34.99
22389;BME280;11362;48.102;11.620;2023-11-19T02:15:12;95104.06;;;24.20;34.96
22389;BME280;11362;48.102;11.620;2023-11-19T02:17:38;95095.34;;;24.21;35.08
22389;BME280;11362;48.102;11.620;2023-11-19T02:20:04;95091.00;;;24.20;34.86
22389;BME280;11362;48.102;11.620;2023-11-19T02:22:29;95085.44;;;24.20;34.97
22389;BME280;11362;48.102;11.620;2023-11-19T02:24:59;95078.69;;;24.21;34.95
22389;BME280;11362;48.102;11.620;2023-11-19T02:27:46;95075.91;;;24.21;34.93
22389;BME280;11362;48.102;11.620;2023-11-19T02:30:12;95073.53;;;24.20;34.96
22389;BME280;11362;48.102;11.620;2023-11-19T02:32:37;95068.78;;;24.20;35.00
22389;BME280;11362;48.102;11.620;2023-11-19T02:35:02;95060.88;;;24.19;35.23
22389;BME280;11362;48.102;11.620;2023-11-19T02:37:28;95058.44;;;24.21;34.94
22389;BME280;11362;48.102;11.620;2023-11-19T02:39:53;95052.91;;;24.21;34.95
22389;BME280;11362;48.102;11.620;2023-11-19T02:42:18;95046.59;;;24.20;34.97
22389;BME280;11362;48.102;11.620;2023-11-19T02:44:44;95048.91;;;24.22;34.97
22389;BME280;11362;48.102;11.620;2023-11-19T02:47:10;95058.44;;;24.21;35.01
22389;BME280;11362;48.102;11.620;2023-11-19T02:49:35;95051.34;;;24.20;34.91
22389;BME280;11362;48.102;11.620;2023-11-19T02:52:00;95049.38;;;24.20;35.01
22389;BME280;11362;48.102;11.620;2023-11-19T02:54:25;95041.03;;;24.20;35.00
22389;BME280;11362;48.102;11.620;2023-11-19T02:56:51;95037.88;;;24.18;35.33
22389;BME280;11362;48.102;11.620;2023-11-19T02:59:16;95024.38;;;24.20;35.02
22389;BME280;11362;48.102;11.620;2023-11-19T03:01:41;95026.38;;;24.20;35.08
22389;BME280;11362;48.102;11.620;2023-11-19T03:04:06;95022.72;;;24.23;35.07
22389;BME280;11362;48.102;11.620;2023-11-19T03:06:32;95013.28;;;24.20;34.98
22389;BME280;11362;48.102;11.620;2023-11-19T03:08:57;95017.63;;;24.21;34.98
22389;BME280;11362;48.102;11.620;2023-11-19T03:11:22;95017.25;;;24.19;35.09
22389;BME280;11362;48.102;11.620;2023-11-19T03:13:48;95009.38;;;24.18;35.00
22389;BME280;11362;48.102;11.620;2023-11-19T03:16:13;95013.28;;;24.20;35.06
22389;BME280;11362;48.102;11.620;2023-11-19T03:18:39;95012.50;;;24.20;34.99
22389;BME280;11362;48.102;11.620;2023-11-19T03:21:07;95004.97;;;24.20;35.08
22389;BME280;11362;48.102;11.620;2023-11-19T03:23:33;94999.41;;;24.20;34.97
22389;BME280;11362;48.102;11.620;2023-11-19T03:25:58;95011.69;;;24.19;35.04
22389;BME280;11362;48.102;11.620;2023-11-19T03:28:23;95012.06;;;24.21;35.04
22389;BME280;11362;48.102;11.620;2023-11-19T03:30:49;95016.06;;;24.20;34.96
22389;BME280;11362;48.102;11.620;2023-11-19T03:33:14;95000.16;;;24.21;34.97
22389;BME280;11362;48.102;11.620;2023-11-19T03:35:39;95007.72;;;24.20;34.85
22389;BME280;11362;48.102;11.620;2023-11-19T03:38:04;95006.13;;;24.19;35.01
22389;BME280;11362;48.102;11.620;2023-11-19T03:40:30;95004.97;;;24.20;34.82
22389;BME280;11362;48.102;11.620;2023-11-19T03:42:58;94995.03;;;24.19;35.03
22389;BME280;11362;48.102;11.620;2023-11-19T03:45:24;94997.81;;;24.19;34.97
22389;BME280;11362;48.102;11.620;2023-11-19T03:47:49;95000.59;;;24.19;35.21
22389;BME280;11362;48.102;11.620;2023-11-19T03:50:14;95008.91;;;24.19;35.11
22389;BME280;11362;48.102;11.620;2023-11-19T03:52:39;95014.13;;;24.17;35.09
22389;BME280;11362;48.102;11.620;2023-11-19T03:55:05;95021.22;;;24.18;35.09
22389;BME280;11362;48.102;11.620;2023-11-19T03:57:30;95020.81;;;24.20;34.99
22389;BME280;11362;48.102;11.620;2023-11-19T03:59:56;95007.72;;;24.20;35.02
22389;BME280;11362;48.102;11.620;2023-11-19T04:02:21;95011.28;;;24.21;35.07
22389;BME280;11362;48.102;11.620;2023-11-19T04:04:46;95006.94;;;24.20;34.91
22389;BME280;11362;48.102;11.620;2023-11-19T04:07:11;95005.31;;;24.22;35.06
22389;BME280;11362;48.102;11.620;2023-11-19T04:09:37;95002.53;;;24.22;35.08
22389;BME280;11362;48.102;11.620;2023-11-19T04:12:02;95010.41;;;24.24;35.21
22389;BME280;11362;48.102;11.620;2023-11-19T04:14:28;95012.41;;;24.23;35.00
22389;BME280;11362;48.102;11.620;2023-11-19T04:16:53;95014.84;;;24.21;35.06
22389;BME280;11362;48.102;11.620;2023-11-19T04:19:19;95017.16;;;24.23;34.98
22389;BME280;11362;48.102;11.620;2023-11-19T04:21:44;95008.06;;;24.22;35.06
22389;BME280;11362;48.102;11.620;2023-11-19T04:24:10;95015.19;;;24.23;34.87
22389;BME280;11362;48.102;11.620;2023-11-19T04:26:35;95027.06;;;24.24;34.92
22389;BME280;11362;48.102;11.620;2023-11-19T04:29:01;95020.75;;;24.23;34.96
22389;BME280;11362;48.102;11.620;2023-11-19T04:31:29;95015.59;;;24.22;35.00
22389;BME280;11362;48.102;11.620;2023-11-19T04:33:54;95021.94;;;24.22;35.04
22389;BME280;11362;48.102;11.620;2023-11-19T04:36:20;95019.59;;;24.21;35.11
22389;BME280;11362;48.102;11.620;2023-11-19T04:38:45;95021.22;;;24.18;35.12
22389;BME280;11362;48.102;11.620;2023-11-19T04:41:10;95025.94;;;24.21;35.10
22389;BME280;11362;48.102;11.620;2023-11-19T04:43:35;95026.38;;;24.20;35.29
22389;BME280;11362;48.102;11.620;2023-11-19T04:46:03;95026.38;;;24.20;35.10
22389;BME280;11362;48.102;11.620;2023-11-19T04:48:29;95018.84;;;24.20;34.97
22389;BME280;11362;48.102;11.620;2023-11-19T04:50:54;95014.84;;;24.21;35.04
22389;BME280;11362;48.102;11.620;2023-11-19T04:53:19;95013.28;;;24.20;35.01
22389;BME280;11362;48.102;11.620;2023-11-19T04:55:45;95014.03;;;24.21;35.02
22389;BME280;11362;48.102;11.620;2023-11-19T04:58:10;95016.06;;;24.20;35.00
22389;BME280;11362;48.102;11.620;2023-11-19T05:00:35;95025.94;;;24.21;35.04
22389;BME280;11362;48.102;11.620;2023-11-19T05:03:01;95018.84;;;24.20;34.99
22389;BME280;11362;48.102;11.620;2023-11-19T05:05:26;95012.84;;;24.22;35.02
22389;BME280;11362;48.102;11.620;2023-11-19T05:07:51;95019.25;;;24.19;35.15
22389;BME280;11362;48.102;11.620;2023-11-19T05:10:16;95021.16;;;24.22;35.13
22389;BME280;11362;48.102;11.620;2023-11-19T05:12:42;95020.41;;;24.21;35.10
22389;BME280;11362;48.102;11.620;2023-11-19T05:15:07;95023.94;;;24.22;35.10
22389;BME280;11362;48.102;11.620;2023-11-19T05:17:33;95025.94;;;24.21;35.07
22389;BME280;11362;48.102;11.620;2023-11-19T05:19:58;95020.41;;;24.21;35.20
22389;BME280;11362;48.102;11.620;2023-11-19T05:22:23;95025.94;;;24.21;35.00
22389;BME280;11362;48.102;11.620;2023-11-19T05:24:49;95027.16;;;24.20;35.02
22389;BME280;11362;48.102;11.620;2023-11-19T05:27:14;95029.13;;;24.20;35.23
22389;BME280;11362;48.102;11.620;2023-11-19T05:29:39;95042.59;;;24.21;35.26
22389;BME280;11362;48.102;11.620;2023-11-19T05:32:05;95044.16;;;24.22;35.25
22389;BME280;11362;48.102;11.620;2023-11-19T05:34:30;95046.72;;;24.13;35.20
22389;BME280;11362;48.102;11.620;2023-11-19T05:36:55;95040.31;;;24.16;35.39
22389;BME280;11362;48.102;11.620;2023-11-19T05:39:21;95050.63;;;24.16;35.34
22389;BME280;11362;48.102;11.620;2023-11-19T05:41:46;95039.81;;;24.21;35.25
22389;BME280;11362;48.102;11.620;2023-11-19T05:44:11;95046.94;;;24.22;35.26
22389;BME280;11362;48.102;11.620;2023-11-19T05:46:37;95045.38;;;24.21;35.09
22389;BME280;11362;48.102;11.620;2023-11-19T05:49:02;95060.00;;;24.22;35.30
22389;BME280;11362;48.102;11.620;2023-11-19T05:51:27;95050.47;;;24.23;35.20
22389;BME280;11362;48.102;11.620;2023-11-19T05:53:52;95050.06;;;24.24;35.10
22389;BME280;11362;48.102;11.620;2023-11-19T05:56:18;95048.16;;;24.21;35.41
22389;BME280;11362;48.102;11.620;2023-11-19T05:58:43;95050.94;;;24.21;35.34
22389;BME280;11362;48.102;11.620;2023-11-19T06:01:08;95053.09;;;24.10;35.47
22389;BME280;11362;48.102;11.620;2023-11-19T06:03:33;95063.44;;;24.10;35.63
22389;BME280;11362;48.102;11.620;2023-11-19T06:05:59;95062.66;;;24.09;35.50
22389;BME280;11362;48.102;11.620;2023-11-19T06:08:24;95048.78;;;24.09;35.62
22389;BME280;11362;48.102;11.620;2023-11-19T06:10:49;95047.56;;;24.10;35.59
22389;BME280;11362;48.102;11.620;2023-11-19T06:13:15;95031.78;;;24.07;35.65
22389;BME280;11362;48.102;11.620;2023-11-19T06:15:44;95035.75;;;24.06;35.74
22389;BME280;11362;48.102;11.620;2023-11-19T06:18:09;95048.69;;;24.13;35.57
22389;BME280;11362;48.102;11.620;2023-11-19T06:20:35;95048.28;;;24.14;35.47
22389;BME280;11362;48.102;11.620;2023-11-19T06:23:00;95052.13;;;24.20;35.49
22389;BME280;11362;48.102;11.620;2023-11-19T06:25:26;95054.91;;;24.20;35.31
22389;BME280;11362;48.102;11.620;2023-11-19T06:27:52;95043.44;;;24.18;35.54
22389;BME280;11362;48.102;11.620;2023-11-19T06:30:17;95043.44;;;24.18;35.60
22389;BME280;11362;48.102;11.620;2023-11-19T06:32:43;95045.00;;;24.19;35.55
22389;BME280;11362;48.102;11.620;2023-11-19T06:35:08;95045.78;;;24.20;35.76
22389;BME280;11362;48.102;11.620;2023-11-19T06:37:34;95044.22;;;24.19;35.62
22389;BME280;11362;48.102;11.620;2023-11-19T06:39:59;95040.66;;;24.18;35.45
22389;BME280;11362;48.102;11.620;2023-11-19T06:42:24;95051.34;;;24.20;35.58
22389;BME280;11362;48.102;11.620;2023-11-19T06:44:50;95042.22;;;24.19;35.50
22389;BME280;11362;48.102;11.620;2023-11-19T06:47:15;95047.78;;;24.19;35.56
22389;BME280;11362;48.102;11.620;2023-11-19T06:49:43;95052.56;;;24.19;35.54
22389;BME280;11362;48.102;11.620;2023-11-19T06:52:09;95048.97;;;24.18;35.45
22389;BME280;11362;48.102;11.620;2023-11-19T06:54:34;95061.31;;;24.17;35.60
22389;BME280;11362;48.102;11.620;2023-11-19T06:56:59;95069.97;;;24.19;35.59
22389;BME280;11362;48.102;11.620;2023-11-19T06:59:25;95058.88;;;24.19;35.57
22389;BME280;11362;48.102;11.620;2023-11-19T07:01:50;95067.19;;;24.19;35.55
22389;BME280;11362;48.102;11.620;2023-11-19T07:04:15;95063.66;;;24.19;35.60
22389;BME280;11362;48.102;11.620;2023-11-19T07:06:41;95062.44;;;24.20;35.79
22389;BME280;11362;48.102;11.620;2023-11-19T07:09:06;95070.34;;;24.21;35.58
22389;BME280;11362;48.102;11.620;2023-11-19T07:11:32;95079.91;;;24.20;35.56
22389;BME280;11362;48.102;11.620;2023-11-19T07:13:57;95077.13;;;24.20;35.58
22389;BME280;11362;48.102;11.620;2023-11-19T07:16:22;95074.34;;;24.20;35.65
22389;BME280;11362;48.102;11.620;2023-11-19T07:18:48;95070.34;;;24.21;35.65
22389;BME280;11362;48.102;11.620;2023-11-19T07:21:13;95046.59;;;24.20;35.59
22389;BME280;11362;48.102;11.620;2023-11-19T07:23:39;95038.25;;;24.20;36.10
22389;BME280;11362;48.102;11.620;2023-11-19T07:26:05;95079.38;;;24.25;36.16
22389;BME280;11362;48.102;11.620;2023-11-19T07:28:30;95081.72;;;24.27;36.73
22389;BME280;11362;48.102;11.620;2023-11-19T07:30:56;95070.22;;;24.28;36.86
22389;BME280;11362;48.102;11.620;2023-11-19T07:33:22;95077.69;;;24.31;36.77
22389;BME280;11362;48.102;11.620;2023-11-19T07:35:47;95088.38;;;24.33;36.95
22389;BME280;11362;48.102;11.620;2023-11-19T07:38:13;95089.13;;;24.33;37.64
22389;BME280;11362;48.102;11.620;2023-11-19T07:40:38;95095.06;;;24.35;38.06
22389;BME280;11362;48.102;11.620;2023-11-19T07:43:03;95095.81;;;24.36;37.76
22389;BME280;11362;48.102;11.620;2023-11-19T07:45:28;95105.72;;;24.37;38.13
22389;BME280;11362;48.102;11.620;2023-11-19T07:47:54;95108.06;;;24.38;37.76
22389;BME280;11362;48.102;11.620;2023-11-19T07:50:19;95110.84;;;24.38;37.77
22389;BME280;11362;48.102;11.620;2023-11-19T07:52:44;95113.63;;;24.38;37.88
22389;BME280;11362;48.102;11.620;2023-11-19T07:55:09;95108.06;;;24.38;38.02
22389;BME280;11362;48.102;11.620;2023-11-19T07:57:35;95108.44;;;24.40;37.88
22389;BME280;11362;48.102;11.620;2023-11-19T08:00:00;95115.53;;;24.41;38.25
22389;BME280;11362;48.102;11.620;2023-11-19T08:02:26;95112.75;;;24.41;38.37
22389;BME280;11362;48.102;11.620;2023-11-19T08:04:51;95117.13;;;24.42;38.54
22389;BME280;11362;48.102;11.620;2023-11-19T08:07:18;95112.34;;;24.43;38.47
22389;BME280;11362;48.102;11.620;2023-11-19T08:09:43;95119.91;;;24.42;38.40
22389;BME280;11362;48.102;11.620;2023-11-19T08:12:09;95123.88;;;24.41;38.46
22389;BME280;11362;48.102;11.620;2023-11-19T08:14:35;95118.38;;;24.38;39.01
22389;BME280;11362;48.102;11.620;2023-11-19T08:17:00;95119.91;;;24.42;38.59
22389;BME280;11362;48.102;11.620;2023-11-19T08:19:26;95118.75;;;24.40;38.85
22389;BME280;11362;48.102;11.620;2023-11-19T08:21:51;95119.19;;;24.38;38.74
22389;BME280;11362;48.102;11.620;2023-11-19T08:24:17;95117.97;;;24.39;39.10
22389;BME280;11362;48.102;11.620;2023-11-19T08:26:42;95112.75;;;24.41;39.17
22389;BME280;11362;48.102;11.620;2023-11-19T08:29:08;95123.47;;;24.43;39.33
22389;BME280;11362;48.102;11.620;2023-11-19T08:31:33;95122.31;;;24.40;38.77
22389;BME280;11362;48.102;11.620;2023-11-19T08:33:58;95116.75;;;24.40;38.56
22389;BME280;11362;48.102;11.620;2023-11-19T08:36:24;95124.25;;;24.43;38.82
22389;BME280;11362;48.102;11.620;2023-11-19T08:38:49;95120.25;;;24.44;38.68
22389;BME280;11362;48.102;11.620;2023-11-19T08:41:16;95117.13;;;24.42;38.66
22389;BME280;11362;48.102;11.620;2023-11-19T08:43:41;95117.13;;;24.42;38.53
22389;BME280;11362;48.102;11.620;2023-11-19T08:46:10;95142.13;;;24.42;38.46
22389;BME280;11362;48.102;11.620;2023-11-19T08:48:36;95140.53;;;24.41;38.49
22389;BME280;11362;48.102;11.620;2023-11-19T08:51:01;95141.31;;;24.42;38.83
22389;BME280;11362;48.102;11.620;2023-11-19T08:53:26;95116.00;;;24.40;38.49
22389;BME280;11362;48.102;11.620;2023-11-19T08:55:52;95094.53;;;24.40;38.29
22389;BME280;11362;48.102;11.620;2023-11-19T08:58:17;95090.22;;;24.39;38.41
22389;BME280;11362;48.102;11.620;2023-11-19T09:00:42;95062.44;;;24.39;38.54
22389;BME280;11362;48.102;11.620;2023-11-19T09:03:07;95094.19;;;24.38;38.27
22389;BME280;11362;48.102;11.620;2023-11-19T09:05:33;95121.16;;;24.38;38.38
22389;BME280;11362;48.102;11.620;2023-11-19T09:07:58;95116.06;;;24.36;38.28
22389;BME280;11362;48.102;11.620;2023-11-19T09:10:23;95113.63;;;24.38;38.45
22389;BME280;11362;48.102;11.620;2023-11-19T09:12:49;95108.88;;;24.39;38.35
22389;BME280;11362;48.102;11.620;2023-11-19T09:15:14;95119.19;;;24.38;38.29
22389;BME280;11362;48.102;11.620;2023-11-19T09:17:39;95117.63;;;24.37;38.09
22389;BME280;11362;48.102;11.620;2023-11-19T09:20:06;95106.50;;;24.37;38.12
22389;BME280;11362;48.102;11.620;2023-11-19T09:22:31;95122.38;;;24.37;38.42
22389;BME280;11362;48.102;11.620;2023-11-19T09:24:57;95128.72;;;24.37;38.21
22389;BME280;11362;48.102;11.620;2023-11-19T09:27:22;95131.50;;;24.37;38.09
22389;BME280;11362;48.102;11.620;2023-11-19T09:29:47;95134.28;;;24.37;38.16
22389;BME280;11362;48.102;11.620;2023-11-19T09:32:13;95131.91;;;24.36;38.14
22389;BME280;11362;48.102;11.620;2023-11-19T09:34:38;95135.03;;;24.38;37.96
22389;BME280;11362;48.102;11.620;2023-11-19T09:37:03;95130.69;;;24.37;38.06
22389;BME280;11362;48.102;11.620;2023-11-19T09:39:29;95138.25;;;24.36;38.05
22389;BME280;11362;48.102;11.620;2023-11-19T09:41:54;95143.03;;;24.36;38.19
22389;BME280;11362;48.102;11.620;2023-11-19T09:44:19;95142.25;;;24.35;38.02
22389;BME280;11362;48.102;11.620;2023-11-19T09:46:45;95136.31;;;24.33;38.11
22389;BME280;11362;48.102;11.620;2023-11-19T09:49:11;95132.34;;;24.34;37.81
22389;BME280;11362;48.102;11.620;2023-11-19T09:51:37;95132.34;;;24.34;38.20
22389;BME280;11362;48.102;11.620;2023-11-19T09:54:02;95132.34;;;24.34;38.04
22389;BME280;11362;48.102;11.620;2023-11-19T09:56:29;95126.78;;;24.34;38.00
22389;BME280;11362;48.102;11.620;2023-11-19T09:58:54;95116.47;;;24.35;37.98
22389;BME280;11362;48.102;11.620;2023-11-19T10:01:20;95118.91;;;24.33;38.26
22389;BME280;11362;48.102;11.620;2023-11-19T10:03:47;95112.91;;;24.34;37.80
22389;BME280;11362;48.102;11.620;2023-11-19T10:06:13;95109.72;;;24.36;37.98
22389;BME280;11362;48.102;11.620;2023-11-19T10:08:39;95111.72;;;24.35;37.93
22389;BME280;11362;48.102;11.620;2023-11-19T10:11:06;95104.16;;;24.36;38.12
22389;BME280;11362;48.102;11.620;2023-11-19T10:13:34;95095.41;;;24.37;37.96
22389;BME280;11362;48.102;11.620;2023-11-19T10:16:04;95091.50;;;24.35;37.92
22389;BME280;11362;48.102;11.620;2023-11-19T10:18:29;95091.50;;;24.35;37.88
22389;BME280;11362;48.102;11.620;2023-11-19T10:20:55;95093.84;;;24.36;37.84
22389;BME280;11362;48.102;11.620;2023-11-19T10:23:21;95093.47;;;24.34;38.03
22389;BME280;11362;48.102;11.620;2023-11-19T10:25:46;95093.47;;;24.34;37.91
22389;BME280;11362;48.102;11.620;2023-11-19T10:28:15;95097.47;;;24.33;37.78
22389;BME280;11362;48.102;11.620;2023-11-19T10:30:41;95089.44;;;24.39;37.90
22389;BME280;11362;48.102;11.620;2023-11-19T10:33:13;95085.88;;;24.38;37.82
22389;BME280;11362;48.102;11.620;2023-11-19T10:38:16;95070.69;;;24.43;37.95
22389;BME280;11362;48.102;11.620;2023-11-19T10:40:41;95076.66;;;24.41;37.75
22389;BME280;11362;48.102;11.620;2023-11-19T10:43:07;95077.47;;;24.42;37.78
22389;BME280;11362;48.102;11.620;2023-11-19T10:45:34;95068.19;;;24.48;37.74
22389;BME280;11362;48.102;11.620;2023-11-19T10:47:59;95064.94;;;24.53;37.80
22389;BME280;11362;48.102;11.620;2023-11-19T10:50:26;95057.47;;;24.50;37.57
22389;BME280;11362;48.102;11.620;2023-11-19T10:52:56;95060.59;;;24.52;37.72
22389;BME280;11362;48.102;11.620;2023-11-19T10:55:27;95063.34;;;24.56;37.52
22389;BME280;11362;48.102;11.620;2023-11-19T10:57:52;95047.84;;;24.55;37.69
22389;BME280;11362;48.102;11.620;2023-11-19T11:00:22;95052.34;;;24.49;37.62
22389;BME280;11362;48.102;11.620;2023-11-19T11:02:54;95056.31;;;24.48;37.67
22389;BME280;11362;48.102;11.620;2023-11-19T11:05:22;95049.63;;;24.45;37.88
22389;BME280;11362;48.102;11.620;2023-11-19T11:07:48;95056.41;;;24.44;37.83
22389;BME280;11362;48.102;11.620;2023-11-19T11:10:14;95042.53;;;24.44;38.04
22389;BME280;11362;48.102;11.620;2023-11-19T11:12:41;95032.63;;;24.43;37.80
22389;BME280;11362;48.102;11.620;2023-11-19T11:15:07;95032.47;;;24.50;37.69
22389;BME280;11362;48.102;11.620;2023-11-19T11:17:34;95047.81;;;24.58;37.69
22389;BME280;11362;48.102;11.620;2023-11-19T11:20:01;95037.16;;;24.53;37.62
22389;BME280;11362;48.102;11.620;2023-11-19T11:22:28;95041.16;;;24.52;37.70
22389;BME280;11362;48.102;11.620;2023-11-19T11:25:12;95042.03;;;24.49;37.69
22389;BME280;11362;48.102;11.620;2023-11-19T11:28:13;95028.97;;;24.46;37.84
22389;BME280;11362;48.102;11.620;2023-11-19T11:33:32;95031.25;;;24.51;37.61
22389;BME280;11362;48.102;11.620;2023-11-19T11:36:16;95025.78;;;24.48;37.71
22389;BME280;11362;48.102;11.620;2023-11-19T11:38:43;95040.31;;;24.55;37.67
22389;BME280;11362;48.102;11.620;2023-11-19T11:41:20;95034.38;;;24.53;37.75
22389;BME280;11362;48.102;11.620;2023-11-19T11:43:47;95037.97;;;24.54;37.64
22389;BME280;11362;48.102;11.620;2023-11-19T11:49:00;95021.53;;;24.63;37.61
22389;BME280;11362;48.102;11.620;2023-11-19T11:54:30;95014.69;;;24.67;37.49
22389;BME280;11362;48.102;11.620;2023-11-19T11:57:10;95020.00;;;24.78;37.18
22389;BME280;11362;48.102;11.620;2023-11-19T12:02:08;95031.53;;;24.76;37.51
22389;BME280;11362;48.102;11.620;2023-11-19T12:04:35;95035.44;;;24.79;37.45
22389;BME280;11362;48.102;11.620;2023-11-19T12:07:04;95036.66;;;24.78;37.27
22389;BME280;11362;48.102;11.620;2023-11-19T12:09:31;95032.25;;;24.80;37.38
22389;BME280;11362;48.102;11.620;2023-11-19T12:12:23;95029.47;;;24.80;37.46
22389;BME280;11362;48.102;11.620;2023-11-19T12:20:18;95028.44;;;24.90;37.38
22389;BME280;11362;48.102;11.620;2023-11-19T12:22:45;95038.06;;;24.86;37.46
22389;BME280;11362;48.102;11.620;2023-11-19T12:25:12;95030.88;;;24.88;37.36
22389;BME280;11362;48.102;11.620;2023-11-19T12:27:42;95025.31;;;24.88;37.41
22389;BME280;11362;48.102;11.620;2023-11-19T12:30:08;95026.97;;;24.86;37.59
22389;BME280;11362;48.102;11.620;2023-11-19T12:32:44;95011.66;;;24.78;37.63
22389;BME280;11362;48.102;11.620;2023-11-19T12:35:11;95019.91;;;24.81;37.53
22389;BME280;11362;48.102;11.620;2023-11-19T12:37:41;95014.88;;;24.76;37.54
22389;BME280;11362;48.102;11.620;2023-11-19T12:42:36;95005.03;;;24.72;37.69
22389;BME280;11362;48.102;11.620;2023-11-19T12:45:02;94986.25;;;24.79;37.25
22389;BME280;11362;48.102;11.620;2023-11-19T12:47:27;94988.84;;;24.86;37.17
22389;BME280;11362;48.102;11.620;2023-11-19T12:49:56;94988.84;;;24.86;37.30
22389;BME280;11362;48.102;11.620;2023-11-19T12:52:22;94988.06;;;24.86;37.38
22389;BME280;11362;48.102;11.620;2023-11-19T12:54:47;94986.50;;;24.85;37.56
22389;BME280;11362;48.102;11.620;2023-11-19T12:57:12;94980.88;;;24.88;37.38
22389;BME280;11362;48.102;11.620;2023-11-19T12:59:38;94989.19;;;24.88;37.29
22389;BME280;11362;48.102;11.620;2023-11-19T13:02:03;94985.53;;;24.91;37.45
22389;BME280;11362;48.102;11.620;2023-11-19T13:04:29;94979.31;;;24.87;37.44
22389;BME280;11362;48.102;11.620;2023-11-19T13:06:55;94980.53;;;24.86;37.43